Airfield :
LOGIN :

Register | Disclaimer

   EN    FR    IT 

 










Legend :    VFR   Marginal VFR   IFR   Intensive IFR   Very Intensive IFR
Visi :
Ceiling :
>= 8 km
>= 3000ft
5 to 8 km
1000 to 3000 ft
1500m to 5 km
500 to 1000 ft
800 to 1500m
200 to 500 ft
< 800m
< 200 ft
Symbols :   Thunderstorms  Fog  Heavy snow  Heavy precipitations  Wind > 20 kt
SIGMETs :     Misc.  Thunderstorms  Icing  Turbulence  Mountain Waves  Volcanic Ashes







- Airport Elevation : 0 ft


ENSL - Sleipner A Platform

CURRENT METAR :
  • 170850Z 20042KT 8000 -RA BKN017 13/09 Q0994 W11/S5

EXPIRED METARs :
  • 170820Z 20042KT 9000 OVC016 12/09 Q0995 W11/S5
  • 170750Z 20041KT 9999 OVC020 13/09 Q0995 W11/S5
  • 170720Z 20039KT 9999 BKN025 13/09 Q0996 W11/S5
  • 170650Z 20039KT 9999 FEW020 BKN034 13/09 Q0996 W11/S5

TAF TAF ENSL
Valid from the 17 at 09:00 until the 17 at 17:00 UTC


170800Z 1709/1717 22045KT 9999 -RA BKN020
BECMG 1710/1712 27035KT
TEMPO 1710/1715 BKN008
BECMG 1714/1716 35030KT
No reported NOTAMs for that airfield.
3 SIGMETs reported for the Scottish FIR (EGPX) :
 
Severe mountain waves
EGPX SIGMET 08 VALID 170900/171300 EGRR
EGPX SCOTTISH FIR SEV MTW FCST WI N5914 E00117 - N5500 E00115 - N5500 W00100 - N5500 W00530 - N6100 W00810 - N6100 E00000 - N6000 E00000 - N5914 E00117 FL060/200 STNR WKN=
Severe turbulence
EGPX SIGMET 07 VALID 170900/171300 EGRR
EGPX SCOTTISH FIR SEV TURB FCST E OF LINE N6100 W00744 - N5500 W00459 SFC/FL060 MOV E 20KT NC=
Severe mountain waves
EGPX SIGMET 03 VALID 170500/170900 EGRR
EGPX SCOTTISH FIR SEV MTW FCST WI N5500 E00115 - N5500 W00530 - N5355 W00530 - N5425 W00810 - N6100 W00810 - N6100 E00000 - N6000 E00000 - N5914 E00117 - N5500 E00115 FL030/200 STNR WKN=



MET'MAP, your aeronautical weather chart ! - Copyright ORBIFLY December 2007 - Disclaimer

ORBIFLY MET'MAP TEAM :

Programming & Development : Alexandra Zaïnal
Concept & Development : Baudouin d'Aumeries
Co-Development & Prog : Marc-Olivier Méhu
Technical & hardware support : Manuel Goepfert

Contact : metmap@orbifly.com




SOURCES & CREDITS :

   NOAA